Time;durP1;ratioP1;P1;durP2;ratioP2;P2;SDS_P1;SDS_P2;PMS_P1;PMS_P2;Temp;Humidity;BMP_temperature;BMP_pressure;BME280_temperature;BME280_humidity;BME280_pressure;Samples;Min_cycle;Max_cycle;Signal;HPM_P1;HPM_P2
2021/03/15 00:00:43;;;;;;;29.48;5.65;;;;;;;3.20;87.08;100169.75;5031094;28;20041;-64
2021/03/15 00:03:09;;;;;;;;;;;;;;;3.28;86.98;100166.50;5031632;28;20037;-64
2021/03/15 00:05:34;;;;;;;;;;;;;;;3.31;86.98;100167.06;5035628;28;19917;-64
2021/03/15 00:08:00;;;;;;;27.30;5.77;;;;;;;3.29;87.01;100161.06;5050498;28;19913;-65
2021/03/15 00:10:25;;;;;;;30.47;6.77;;;;;;;3.29;86.79;100153.16;5035071;28;20288;-65
2021/03/15 00:12:51;;;;;;;44.80;9.03;;;;;;;3.32;87.11;100163.44;5034913;28;20132;-64
2021/03/15 00:15:19;;;;;;;32.58;7.75;;;;;;;3.33;86.92;100154.56;5034904;28;20163;-64
2021/03/15 00:17:45;;;;;;;42.70;6.00;;;;;;;3.36;87.26;100151.66;5034458;28;20037;-64
2021/03/15 00:20:13;;;;;;;33.43;6.10;;;;;;;3.36;87.13;100151.66;5034931;28;20113;-64
2021/03/15 00:22:39;;;;;;;35.15;7.95;;;;;;;3.34;87.29;100142.22;5034774;28;20040;-65
2021/03/15 00:25:06;;;;;;;39.23;7.60;;;;;;;3.36;87.37;100145.56;5033986;28;20040;-65
2021/03/15 00:27:33;;;;;;;28.13;5.97;;;;;;;3.38;87.52;100136.53;5034451;28;20037;-65
2021/03/15 00:29:58;;;;;;;32.05;6.03;;;;;;;3.36;87.44;100135.84;5034796;28;20083;-64
2021/03/15 00:32:24;;;;;;;31.50;5.50;;;;;;;3.35;87.11;100134.19;5034695;28;20073;-65
2021/03/15 00:34:49;;;;;;;36.45;7.07;;;;;;;3.33;87.39;100132.63;5000836;28;20077;-64
2021/03/15 00:37:15;;;;;;;38.60;7.13;;;;;;;3.32;87.47;100139.69;5017222;28;20041;-65
2021/03/15 00:39:40;;;;;;;27.00;6.17;;;;;;;3.37;87.29;100131.38;5033416;28;20034;-65
2021/03/15 00:42:06;;;;;;;25.73;7.30;;;;;;;3.35;87.15;100139.44;5033502;28;20051;-64
2021/03/15 00:44:33;;;;;;;37.72;8.13;;;;;;;3.33;87.21;100136.09;5000683;28;20203;-64
2021/03/15 00:47:03;;;;;;;39.33;6.72;;;;;;;3.30;87.34;100136.38;5034426;28;20478;-64
2021/03/15 00:49:29;;;;;;;33.22;7.47;;;;;;;3.34;87.29;100129.03;5033941;28;20083;-65
2021/03/15 00:51:55;;;;;;;;;;;;;;;3.34;87.28;100132.50;5017381;28;20037;-64
2021/03/15 00:54:21;;;;;;;25.70;5.78;;;;;;;3.30;87.11;100135.50;5016664;28;19909;-64
2021/03/15 00:56:48;;;;;;;38.28;7.70;;;;;;;3.27;87.31;100131.34;5000561;28;20037;-65
2021/03/15 00:59:14;;;;;;;;;;;;;;;3.24;87.78;100128.97;5016943;28;20036;-64
2021/03/15 01:01:42;;;;;;;49.45;8.30;;;;;;;3.26;87.86;100128.84;5034172;28;19912;-64
2021/03/15 01:04:10;;;;;;;32.63;8.23;;;;;;;3.27;87.96;100125.22;5033184;28;20095;-64
2021/03/15 01:06:36;;;;;;;33.00;6.82;;;;;;;3.28;87.87;100121.66;5034057;28;20104;-64
2021/03/15 01:09:11;;;;;;;31.63;5.72;;;;;;;3.29;87.85;100121.50;5033671;28;20116;-64
2021/03/15 01:11:46;;;;;;;33.97;7.82;;;;;;;3.32;87.94;100123.03;5033104;28;20103;-64
2021/03/15 01:14:13;;;;;;;36.70;7.10;;;;;;;3.30;87.65;100119.69;5016798;28;20029;-64
2021/03/15 01:16:57;;;;;;;30.60;6.10;;;;;;;3.32;87.46;100118.59;5018377;28;20107;-64
2021/03/15 01:19:28;;;;;;;34.65;6.53;;;;;;;3.33;87.55;100112.34;5015945;28;20037;-64
2021/03/15 01:21:54;;;;;;;25.48;6.10;;;;;;;3.36;87.26;100112.09;5033781;28;20060;-64
2021/03/15 01:24:19;;;;;;;31.98;7.15;;;;;;;3.35;87.04;100113.06;5033637;28;20431;-64
2021/03/15 01:26:45;;;;;;;39.78;8.60;;;;;;;3.36;87.24;100109.44;5016212;28;20039;-64
2021/03/15 01:29:11;;;;;;;24.47;6.83;;;;;;;3.41;87.19;100106.41;5033368;28;20048;-64
2021/03/15 01:31:36;;;;;;;27.95;6.78;;;;;;;3.35;87.42;100107.78;5033493;28;20099;-64
2021/03/15 01:34:02;;;;;;;35.97;6.63;;;;;;;3.39;87.31;100105.72;5016148;28;20038;-64
2021/03/15 01:36:27;;;;;;;50.33;7.37;;;;;;;3.38;87.35;100102.25;5033432;28;20336;-64
2021/03/15 01:38:52;;;;;;;26.37;6.90;;;;;;;3.37;87.84;100100.59;5015691;28;20363;-64
2021/03/15 01:41:18;;;;;;;35.13;9.10;;;;;;;3.37;87.92;100095.31;5033511;28;20044;-64
2021/03/15 01:43:43;;;;;;;26.73;5.27;;;;;;;3.42;87.65;100094.06;5015983;28;20033;-64
2021/03/15 01:46:08;;;;;;;34.77;7.30;;;;;;;3.43;87.60;100103.66;4999700;28;20040;-64
2021/03/15 01:48:34;;;;;;;43.67;7.40;;;;;;;3.43;87.64;100093.09;5015391;28;20517;-64
2021/03/15 01:50:59;;;;;;;44.50;6.23;;;;;;;3.41;87.93;100100.31;5032288;28;20041;-64
2021/03/15 01:53:25;;;;;;;38.27;9.70;;;;;;;3.45;87.57;100084.06;5032266;28;20291;-64
2021/03/15 01:55:51;;;;;;;31.63;7.13;;;;;;;3.41;87.75;100089.75;5033110;28;20049;-64
2021/03/15 01:58:16;;;;;;;28.15;8.35;;;;;;;3.42;87.71;100081.72;5032856;28;20033;-64
2021/03/15 02:00:43;;;;;;;30.07;7.17;;;;;;;3.45;87.66;100077.97;5033050;28;20364;-64
2021/03/15 02:03:12;;;;;;;34.70;6.72;;;;;;;3.48;87.67;100085.63;5015350;28;20028;-64
2021/03/15 02:05:40;;;;;;;25.98;8.15;;;;;;;3.47;87.49;100073.41;5032911;28;20358;-64
2021/03/15 02:08:06;;;;;;;31.63;7.72;;;;;;;3.48;87.32;100075.06;5032683;28;20131;-64
2021/03/15 02:10:33;;;;;;;33.95;8.68;;;;;;;3.47;87.24;100068.94;5031840;28;20040;-64
2021/03/15 02:13:23;;;;;;;36.95;6.50;;;;;;;3.54;86.98;100075.38;5032870;28;20037;-64
2021/03/15 02:16:19;;;;;;;38.58;6.47;;;;;;;3.51;86.75;100074.78;5032566;28;20041;-64
2021/03/15 02:19:05;;;;;;;31.98;6.22;;;;;;;3.47;86.76;100061.03;5032444;28;20428;-64
2021/03/15 02:21:59;;;;;;;32.47;6.50;;;;;;;3.48;86.56;100061.88;5031806;28;20454;-64
2021/03/15 02:24:41;;;;;;;30.55;6.00;;;;;;;3.49;86.30;100072.28;5032685;28;20053;-64
2021/03/15 02:27:29;;;;;;;38.45;8.00;;;;;;;3.46;86.58;100063.78;5014104;28;20044;-64
2021/03/15 02:30:36;;;;;;;22.38;5.25;;;;;;;3.46;86.47;100063.78;5015262;28;20045;-64
2021/03/15 02:33:25;;;;;;;22.65;5.80;;;;;;;3.50;86.14;100057.28;5031495;28;20029;-64
2021/03/15 02:35:54;;;;;;;31.73;6.80;;;;;;;3.46;86.31;100064.63;5015031;28;20112;-64
2021/03/15 02:38:22;;;;;;;16.42;5.25;;;;;;;3.44;86.19;100052.53;5031202;28;20042;-64
2021/03/15 02:40:53;;;;;;;16.05;4.85;;;;;;;3.40;86.12;100045.88;5032095;28;20068;-64
2021/03/15 02:43:23;;;;;;;31.88;6.30;;;;;;;3.31;86.18;100043.06;5032295;28;20040;-64
2021/03/15 02:46:13;;;;;;;15.15;4.35;;;;;;;3.34;86.33;100044.59;5014802;28;20042;-64
2021/03/15 02:48:41;;;;;;;30.80;6.40;;;;;;;3.28;86.05;100040.69;5031723;28;20148;-63
2021/03/15 02:51:08;;;;;;;28.80;4.93;;;;;;;3.27;86.11;100044.28;5031977;28;20481;-64
2021/03/15 02:53:35;;;;;;;19.88;4.47;;;;;;;3.26;86.10;100034.69;5032080;28;20128;-64
2021/03/15 02:56:09;;;;;;;23.33;3.92;;;;;;;3.30;86.03;100027.34;5031977;28;20042;-64
2021/03/15 02:58:37;;;;;;;15.77;3.80;;;;;;;3.28;85.61;100031.94;5031777;28;20033;-64
2021/03/15 03:01:02;;;;;;;24.75;4.93;;;;;;;3.29;85.54;100029.16;5031907;28;20041;-64
2021/03/15 03:03:29;;;;;;;22.20;4.78;;;;;;;3.28;85.66;100022.22;5031780;28;20048;-64
2021/03/15 03:05:57;;;;;;;18.45;4.25;;;;;;;3.29;85.76;100033.59;5031789;28;20033;-64
2021/03/15 03:08:24;;;;;;;27.00;4.35;;;;;;;3.31;85.70;100031.66;5031505;28;20041;-64
2021/03/15 03:10:50;;;;;;;24.88;4.28;;;;;;;3.29;85.81;100034.44;5031755;28;20191;-64
2021/03/15 03:13:21;;;;;;;31.92;5.22;;;;;;;3.24;86.03;100031.34;5014334;28;20029;-64
2021/03/15 03:15:49;;;;;;;27.85;6.88;;;;;;;3.25;85.98;100024.28;4997842;28;20120;-64
2021/03/15 03:18:15;;;;;;;22.80;5.75;;;;;;;3.21;85.80;100021.09;5031074;28;20037;-64
2021/03/15 03:20:44;;;;;;;;;;;;;;;3.24;85.95;100030.53;5032075;28;20026;-64
2021/03/15 03:23:10;;;;;;;23.40;5.72;;;;;;;3.22;86.00;100028.00;5047144;28;20119;-64
2021/03/15 03:25:37;;;;;;;23.23;5.32;;;;;;;3.19;86.19;100017.75;5027277;28;20374;-64
2021/03/15 03:28:04;;;;;;;16.60;4.82;;;;;;;3.14;86.46;100014.66;5011500;28;20512;-64
2021/03/15 03:30:32;;;;;;;22.67;6.03;;;;;;;3.15;86.31;100013.69;5011853;28;20073;-64
2021/03/15 03:33:01;;;;;;;18.77;4.95;;;;;;;3.17;86.64;100019.66;5010601;28;20072;-64
2021/03/15 03:35:26;;;;;;;31.33;7.30;;;;;;;3.14;86.69;100025.22;4994336;28;20448;-64
2021/03/15 03:37:52;;;;;;;21.33;4.95;;;;;;;3.11;86.77;100010.50;5011231;28;20176;-64
2021/03/15 03:40:19;;;;;;;29.53;7.93;;;;;;;3.11;87.10;100010.50;5011480;28;20065;-64
2021/03/15 03:42:45;;;;;;;26.13;6.30;;;;;;;3.08;87.07;100002.81;5011572;28;20292;-64
2021/03/15 03:45:11;;;;;;;26.38;7.63;;;;;;;3.04;87.52;100000.59;5011410;28;20049;-64
2021/03/15 03:47:38;;;;;;;23.73;6.80;;;;;;;2.97;87.68;100002.91;5011095;28;20041;-64
2021/03/15 03:50:08;;;;;;;34.65;6.15;;;;;;;2.99;87.85;100000.16;5005797;28;20167;-64
2021/03/15 03:52:37;;;;;;;18.77;6.60;;;;;;;3.03;87.54;100004.19;5011470;28;20033;-64
2021/03/15 03:55:06;;;;;;;27.00;6.60;;;;;;;2.98;87.73;99999.31;5011417;28;20107;-64
2021/03/15 03:57:35;;;;;;;26.58;7.43;;;;;;;2.90;88.14;100000.00;5011234;28;20037;-64
2021/03/15 04:00:09;;;;;;;36.58;8.32;;;;;;;2.89;88.29;100003.56;5011346;28;20030;-64
2021/03/15 04:02:43;;;;;;;22.30;7.60;;;;;;;2.92;88.23;99998.03;5011350;28;20084;-64
2021/03/15 04:05:09;;;;;;;28.63;7.70;;;;;;;2.91;88.49;99999.00;5010534;28;20065;-64
2021/03/15 04:07:43;;;;;;;25.25;6.65;;;;;;;2.95;88.44;100000.44;5011119;28;20471;-64
2021/03/15 04:10:09;;;;;;;22.05;6.88;;;;;;;3.00;88.21;100001.81;5011385;28;20069;-64
2021/03/15 04:12:40;;;;;;;30.73;8.05;;;;;;;3.00;88.28;99997.41;5010235;28;20395;-64
2021/03/15 04:15:06;;;;;;;37.33;8.95;;;;;;;3.03;88.23;99989.22;5011278;28;20439;-64
2021/03/15 04:17:35;;;;;;;33.35;8.73;;;;;;;2.98;88.44;100001.97;5010041;28;20041;-64
2021/03/15 04:20:05;;;;;;;26.88;7.72;;;;;;;2.96;88.77;99995.97;5010330;28;20459;-64
2021/03/15 04:22:36;;;;;;;29.25;8.73;;;;;;;2.94;88.86;99997.91;5026658;28;20638;-64
2021/03/15 04:25:02;;;;;;;33.65;7.65;;;;;;;2.94;88.75;99996.09;5011177;28;20076;-64
2021/03/15 04:27:30;;;;;;;34.90;11.25;;;;;;;2.90;88.98;99997.34;5010946;28;20349;-63
2021/03/15 04:29:56;;;;;;;41.33;8.57;;;;;;;2.94;89.29;99993.47;5011178;28;20040;-64
2021/03/15 04:32:24;;;;;;;27.85;9.45;;;;;;;3.02;88.87;99989.34;5010189;28;20041;-64
2021/03/15 04:34:50;;;;;;;38.88;9.10;;;;;;;2.98;88.97;99987.94;5011062;28;20046;-64
2021/03/15 04:37:17;;;;;;;28.50;9.30;;;;;;;3.01;89.33;99982.41;5010062;28;20042;-64
2021/03/15 04:39:43;;;;;;;32.20;7.05;;;;;;;3.02;89.47;99984.06;5009712;28;20034;-64
2021/03/15 04:42:09;;;;;;;32.60;9.25;;;;;;;2.96;89.66;99983.63;5010118;28;20061;-64
2021/03/15 04:44:38;;;;;;;27.42;8.38;;;;;;;2.96;89.50;99978.34;5011097;28;20459;-64
2021/03/15 04:47:04;;;;;;;31.25;8.18;;;;;;;3.01;89.47;99982.41;5010969;28;20034;-64
2021/03/15 04:49:32;;;;;;;29.00;9.50;;;;;;;3.01;89.20;99979.75;5026122;28;20046;-64
2021/03/15 04:51:58;;;;;;;29.00;9.20;;;;;;;2.99;89.21;99979.88;5013712;28;20037;-64
2021/03/15 04:54:24;;;;;;;40.28;10.75;;;;;;;3.04;88.91;99982.13;5014640;28;20037;-65
2021/03/15 04:56:52;;;;;;;28.13;7.32;;;;;;;3.05;88.89;99989.09;5014553;28;20111;-65
2021/03/15 04:59:19;;;;;;;35.50;10.00;;;;;;;3.06;88.81;99986.28;5014169;28;20080;-64
2021/03/15 05:01:45;;;;;;;41.85;8.63;;;;;;;3.08;88.85;99978.25;5014397;28;20059;-64
2021/03/15 05:04:12;;;;;;;38.03;8.30;;;;;;;3.07;88.87;99976.59;5014374;28;20100;-64
2021/03/15 05:06:40;;;;;;;24.55;8.57;;;;;;;3.05;89.00;99978.53;5014226;28;20033;-64
2021/03/15 05:09:08;;;;;;;39.10;10.07;;;;;;;3.03;88.62;99964.66;5012976;28;20037;-64
2021/03/15 05:11:36;;;;;;;22.27;6.50;;;;;;;3.05;88.72;99968.81;5014187;28;20056;-64
2021/03/15 05:14:03;;;;;;;23.25;8.02;;;;;;;3.06;88.48;99962.56;5014109;28;20138;-64
2021/03/15 05:16:29;;;;;;;30.55;7.70;;;;;;;3.07;88.58;99971.34;5014055;28;20385;-64
2021/03/15 05:18:56;;;;;;;22.67;8.93;;;;;;;3.06;88.45;99967.00;5013787;28;20502;-64
2021/03/15 05:21:22;;;;;;;23.90;7.03;;;;;;;3.03;88.45;99960.19;5014100;28;20069;-64
2021/03/15 05:23:48;;;;;;;27.20;6.25;;;;;;;3.09;88.13;99961.47;5013134;28;20041;-64
2021/03/15 05:26:13;;;;;;;25.45;6.55;;;;;;;3.10;88.09;99949.97;5013073;28;20038;-64
2021/03/15 05:28:40;;;;;;;24.85;7.50;;;;;;;3.06;88.12;99946.75;5012720;28;20345;-64
2021/03/15 05:31:06;;;;;;;28.90;8.32;;;;;;;3.03;88.04;99951.47;5013831;28;20038;-64
2021/03/15 05:33:35;;;;;;;;;;;;;;;3.03;87.78;99944.38;5013236;28;20034;-64
2021/03/15 05:36:05;;;;;;;25.48;9.45;;;;;;;2.98;87.90;99951.03;5013596;28;20048;-65
2021/03/15 05:38:30;;;;;;;24.70;7.32;;;;;;;2.97;87.98;99952.81;5013470;28;20042;-64
2021/03/15 05:40:56;;;;;;;25.20;6.73;;;;;;;3.00;87.72;99949.94;5027410;28;20044;-65
2021/03/15 05:43:24;;;;;;;25.33;7.13;;;;;;;2.96;87.67;99945.88;5033260;28;20029;-65
2021/03/15 05:46:07;;;;;;;22.85;5.85;;;;;;;2.99;87.67;99952.69;5033318;28;20108;-65
2021/03/15 05:49:10;;;;;;;21.42;5.68;;;;;;;3.03;87.31;99948.81;5032077;28;20160;-65
2021/03/15 05:52:03;;;;;;;18.05;6.13;;;;;;;3.08;87.19;99944.81;5033265;28;20090;-64
2021/03/15 05:54:55;;;;;;;22.73;5.88;;;;;;;3.04;86.90;99940.75;5024650;28;20053;-64
2021/03/15 05:57:54;;;;;;;26.50;6.80;;;;;;;3.06;86.71;99936.19;5033245;28;20064;-64
2021/03/15 06:00:54;;;;;;;20.88;6.15;;;;;;;3.07;86.49;99929.13;5033129;28;20041;-64
2021/03/15 06:04:00;;;;;;;24.58;5.60;;;;;;;3.02;86.82;99934.81;5032962;28;20033;-64
2021/03/15 06:06:34;;;;;;;27.83;7.13;;;;;;;2.97;86.98;99926.44;5033059;28;20029;-64
2021/03/15 06:09:01;;;;;;;24.90;6.57;;;;;;;2.96;86.93;99917.69;5015157;28;20044;-65
2021/03/15 06:11:51;;;;;;;27.55;5.90;;;;;;;3.03;86.79;99922.44;5031946;28;20044;-64
2021/03/15 06:14:17;;;;;;;15.23;5.03;;;;;;;3.05;86.80;99918.72;5014892;28;20049;-64
2021/03/15 06:16:42;;;;;;;18.20;6.90;;;;;;;3.06;86.77;99914.25;5032697;28;20037;-64
2021/03/15 06:19:08;;;;;;;17.88;6.55;;;;;;;3.08;86.35;99909.69;5032461;28;20041;-64
2021/03/15 06:21:37;;;;;;;19.83;5.30;;;;;;;3.11;86.38;99920.81;5032594;28;20041;-64
2021/03/15 06:24:03;;;;;;;14.77;5.85;;;;;;;3.08;86.69;99914.97;5032574;28;20462;-65
2021/03/15 06:26:33;;;;;;;13.30;5.53;;;;;;;3.11;86.73;99917.31;5015318;28;20099;-64
2021/03/15 06:29:03;;;;;;;19.00;5.85;;;;;;;3.14;86.82;99922.34;5032218;28;20311;-64
2021/03/15 06:31:30;;;;;;;21.33;5.80;;;;;;;3.11;87.14;99912.03;5032543;28;20041;-64
2021/03/15 06:33:57;;;;;;;19.35;5.88;;;;;;;3.05;87.23;99916.06;5015015;28;20403;-64
2021/03/15 06:36:22;;;;;;;18.77;6.72;;;;;;;3.08;87.66;99928.16;5014984;28;20120;-64
2021/03/15 06:38:48;;;;;;;16.57;5.90;;;;;;;3.15;87.48;99916.09;5014762;28;20147;-64
2021/03/15 06:41:16;;;;;;;20.42;5.28;;;;;;;3.09;88.07;99916.63;5032365;28;20451;-64
2021/03/15 06:43:41;;;;;;;14.48;5.22;;;;;;;3.02;88.42;99913.72;4998557;28;20090;-64
2021/03/15 06:46:07;;;;;;;11.45;4.13;;;;;;;2.99;88.42;99921.88;5032194;28;20455;-64
2021/03/15 06:48:33;;;;;;;14.05;5.38;;;;;;;2.98;88.57;99920.22;5031599;28;20455;-64
2021/03/15 06:50:58;;;;;;;15.63;5.05;;;;;;;2.96;88.82;99916.88;5032155;28;20053;-65
2021/03/15 06:53:35;;;;;;;9.77;4.80;;;;;;;2.94;89.07;99919.63;5032108;28;20044;-64
2021/03/15 06:56:00;;;;;;;18.45;6.22;;;;;;;2.94;89.07;99911.72;5031962;28;20623;-64
2021/03/15 06:58:28;;;;;;;15.63;4.17;;;;;;;2.95;89.11;99923.97;5031712;28;20041;-64
2021/03/15 07:01:14;;;;;;;12.85;5.32;;;;;;;2.94;89.26;99924.91;5031846;28;20363;-64
2021/03/15 07:03:40;;;;;;;13.25;5.18;;;;;;;3.03;89.26;99917.19;5014450;28;20203;-64
2021/03/15 07:06:07;;;;;;;14.40;3.38;;;;;;;2.97;88.88;99929.06;5031826;28;20044;-64
2021/03/15 07:08:32;;;;;;;;;;;;;;;2.97;88.83;99926.44;5014600;28;20037;-64
2021/03/15 07:10:57;;;;;;;11.00;3.53;;;;;;;2.95;89.20;99921.31;5031783;28;19920;-64
2021/03/15 07:13:25;;;;;;;16.43;5.23;;;;;;;3.02;89.44;99926.03;5031141;28;20044;-65
2021/03/15 07:15:53;;;;;;;6.18;3.33;;;;;;;3.00;89.24;99930.59;5031479;28;20129;-64
2021/03/15 07:18:20;;;;;;;9.63;3.53;;;;;;;3.00;89.22;99917.41;5031337;28;20474;-64
2021/03/15 07:20:59;;;;;;;7.53;2.60;;;;;;;3.01;89.39;99925.22;5030204;28;20155;-64
2021/03/15 07:23:43;;;;;;;6.82;2.78;;;;;;;3.02;89.01;99926.91;5030184;28;20045;-64
2021/03/15 07:26:14;;;;;;;8.32;2.65;;;;;;;3.03;88.72;99917.19;5030760;28;20065;-64
2021/03/15 07:28:43;;;;;;;6.10;2.17;;;;;;;3.04;88.95;99927.56;5030448;28;20048;-65
2021/03/15 07:31:31;;;;;;;10.40;2.80;;;;;;;3.09;89.04;99919.25;5028572;28;20037;-65
2021/03/15 07:33:56;;;;;;;7.95;2.40;;;;;;;3.14;88.75;99925.00;5029489;28;20116;-65
2021/03/15 07:36:26;;;;;;;5.37;1.87;;;;;;;3.20;88.70;99916.50;5029527;28;20120;-65
2021/03/15 07:38:52;;;;;;;6.82;1.42;;;;;;;3.16;88.47;99923.88;5028403;28;20125;-65
2021/03/15 07:41:19;;;;;;;7.38;1.42;;;;;;;3.29;88.35;99931.53;5029671;28;20067;-65
2021/03/15 07:43:45;;;;;;;7.47;2.60;;;;;;;3.34;87.65;99933.78;5029934;28;20037;-65
2021/03/15 07:46:21;;;;;;;1.33;0.80;;;;;;;3.38;86.61;99930.72;4997575;28;20474;-65
2021/03/15 07:48:47;;;;;;;5.78;1.45;;;;;;;3.42;86.35;99930.44;5031279;28;20037;-65
2021/03/15 07:51:13;;;;;;;3.42;1.00;;;;;;;3.48;86.19;99924.63;5031221;28;20087;-63
2021/03/15 07:53:43;;;;;;;5.85;2.88;;;;;;;3.53;86.68;99925.03;5030415;28;20107;-62
2021/03/15 07:56:10;;;;;;;4.05;1.42;;;;;;;3.62;86.30;99926.88;5031113;28;20037;-63
2021/03/15 07:58:39;;;;;;;6.38;1.65;;;;;;;3.60;86.14;99926.16;5030072;28;20399;-63
2021/03/15 08:01:06;;;;;;;6.75;1.58;;;;;;;3.70;86.35;99927.03;5030166;28;20048;-63
2021/03/15 08:03:32;;;;;;;5.05;1.10;;;;;;;3.71;85.73;99931.31;5030047;28;20044;-63
2021/03/15 08:06:00;;;;;;;6.57;1.55;;;;;;;3.80;86.16;99932.31;5031138;28;20037;-63
2021/03/15 08:08:27;;;;;;;9.00;1.20;;;;;;;3.90;85.77;99942.84;5030659;28;20040;-63
2021/03/15 08:10:53;;;;;;;7.30;1.10;;;;;;;4.01;85.30;99934.81;5031095;28;20038;-63
2021/03/15 08:13:22;;;;;;;11.82;1.67;;;;;;;4.16;85.21;99938.66;5030070;28;20092;-63
2021/03/15 08:15:50;;;;;;;12.30;2.20;;;;;;;4.22;84.93;99934.63;5013617;28;20038;-63
2021/03/15 08:18:38;;;;;;;7.40;2.33;;;;;;;4.24;84.69;99935.34;5030631;28;20195;-63
2021/03/15 08:21:05;;;;;;;9.80;3.03;;;;;;;4.31;85.10;99928.50;5031022;28;20037;-63
2021/03/15 08:23:34;;;;;;;15.63;3.60;;;;;;;4.40;85.46;99929.44;5030021;28;20037;-63
2021/03/15 08:26:04;;;;;;;11.93;2.60;;;;;;;4.44;85.25;99921.09;5033236;28;20231;-63
2021/03/15 08:28:32;;;;;;;18.17;3.55;;;;;;;4.52;84.91;99917.75;5034232;28;20033;-63
2021/03/15 08:31:06;;;;;;;13.23;3.25;;;;;;;4.60;85.06;99919.66;5033232;28;20132;-63
2021/03/15 08:33:32;;;;;;;12.27;2.63;;;;;;;4.47;85.47;99913.84;5033826;28;20406;-63
2021/03/15 08:35:58;;;;;;;14.73;3.47;;;;;;;4.41;85.82;99909.97;5033677;28;20052;-63
2021/03/15 08:38:34;;;;;;;17.15;3.05;;;;;;;4.38;86.31;99915.56;5034274;28;20037;-63
2021/03/15 08:41:01;;;;;;;13.20;4.50;;;;;;;4.40;86.56;99905.66;5033709;28;20049;-63
2021/03/15 08:43:38;;;;;;;14.70;4.15;;;;;;;4.31;86.53;99896.81;5034374;28;20037;-63
2021/03/15 08:46:19;;;;;;;14.90;3.60;;;;;;;4.40;86.47;99909.16;5033450;28;20041;-63
2021/03/15 08:48:44;;;;;;;20.58;5.00;;;;;;;4.36;86.42;99904.28;5034049;28;20182;-63
2021/03/15 08:51:11;;;;;;;12.17;2.20;;;;;;;4.46;86.69;99907.75;5033907;28;20116;-63
2021/03/15 08:53:36;;;;;;;21.20;2.92;;;;;;;4.59;86.28;99908.25;5016015;28;20029;-63
2021/03/15 08:56:03;;;;;;;29.57;4.03;;;;;;;4.70;85.13;99904.59;5016696;28;20440;-63
2021/03/15 08:58:35;;;;;;;14.05;3.55;;;;;;;4.75;84.87;99904.16;5032899;28;20126;-63
2021/03/15 09:01:01;;;;;;;20.65;4.93;;;;;;;4.85;84.78;99897.03;5034158;28;20033;-63
2021/03/15 09:03:49;;;;;;;22.92;3.33;;;;;;;4.92;84.84;99899.94;5034027;28;20124;-63
2021/03/15 09:06:37;;;;;;;17.33;3.75;;;;;;;4.87;84.88;99897.72;5016260;28;20049;-63
2021/03/15 09:09:31;;;;;;;20.38;3.92;;;;;;;4.75;84.93;99899.72;5033352;28;20541;-63
2021/03/15 09:11:58;;;;;;;18.83;3.65;;;;;;;4.98;84.97;99888.75;5033566;28;20049;-63
2021/03/15 09:14:27;;;;;;;19.20;4.03;;;;;;;5.25;84.78;99890.53;5032835;28;20033;-63
2021/03/15 09:16:57;;;;;;;25.50;4.53;;;;;;;5.20;84.54;99906.03;5016130;28;20068;-63
2021/03/15 09:19:31;;;;;;;16.42;3.10;;;;;;;5.05;84.76;99903.88;5033464;28;20040;-63
2021/03/15 09:21:59;;;;;;;21.23;4.13;;;;;;;4.92;84.43;99908.69;5032699;28;20042;-63
2021/03/15 09:24:44;;;;;;;14.00;2.70;;;;;;;4.89;84.21;99905.50;5033609;28;20041;-63
2021/03/15 09:27:19;;;;;;;12.37;2.43;;;;;;;4.78;84.64;99912.66;5016070;28;20111;-63
2021/03/15 09:29:56;;;;;;;10.95;2.17;;;;;;;4.89;83.49;99906.31;5033423;28;20398;-63
2021/03/15 09:32:36;;;;;;;13.68;2.15;;;;;;;5.05;83.54;99901.22;5015958;28;20047;-63
2021/03/15 09:35:28;;;;;;;10.98;1.58;;;;;;;4.97;82.46;99908.25;5016182;28;20041;-63
2021/03/15 09:37:59;;;;;;;12.60;3.28;;;;;;;5.03;82.85;99910.28;5015058;28;20041;-63
2021/03/15 09:40:43;;;;;;;11.82;2.90;;;;;;;5.60;82.55;99902.16;5033422;28;20426;-63
2021/03/15 09:43:10;;;;;;;13.60;2.45;;;;;;;6.30;80.39;99911.03;5015770;28;20095;-63
2021/03/15 09:45:36;;;;;;;;;;;;;;;6.28;79.04;99897.09;5016438;28;20091;-63
2021/03/15 09:48:16;;;;;;;17.73;3.65;;;;;;;6.28;81.04;99905.06;5015443;28;20682;-63
2021/03/15 09:50:45;;;;;;;24.45;4.22;;;;;;;6.85;77.83;99901.88;5033288;28;20528;-63
2021/03/15 09:53:18;;;;;;;20.20;3.33;;;;;;;6.59;76.98;99904.59;5015449;28;20075;-63
2021/03/15 09:56:03;;;;;;;21.08;4.00;;;;;;;6.21;79.01;99913.78;5032152;28;20040;-63
2021/03/15 09:58:32;;;;;;;13.57;2.80;;;;;;;6.08;79.53;99900.94;4999388;28;20041;-63
2021/03/15 10:00:59;;;;;;;21.65;4.93;;;;;;;5.99;80.17;99891.25;5015644;28;20356;-63
2021/03/15 10:03:36;;;;;;;20.00;3.53;;;;;;;6.22;78.97;99896.88;5015383;28;20497;-63
2021/03/15 10:06:22;;;;;;;19.17;3.75;;;;;;;6.21;78.58;99890.75;5033067;28;20048;-63
2021/03/15 10:09:06;;;;;;;;;;;;;;;6.44;78.05;99885.78;5032648;28;20102;-63
2021/03/15 10:12:19;;;;;;;17.88;3.50;;;;;;;6.67;76.82;99880.75;4952837;29;19941;-63
2021/03/15 10:15:09;;;;;;;15.57;3.53;;;;;;;6.60;77.23;99885.00;5014986;28;20291;-63
2021/03/15 10:17:44;;;;;;;18.60;3.35;;;;;;;6.48;77.95;99884.44;5015044;28;20162;-63
2021/03/15 10:20:35;;;;;;;21.80;4.80;;;;;;;6.40;77.95;99873.00;5015004;28;20033;-63
2021/03/15 10:23:11;;;;;;;23.83;4.07;;;;;;;6.21;77.70;99885.47;5014940;28;20029;-63
2021/03/15 10:25:37;;;;;;;;;;;;;;;5.93;78.31;99874.94;5015503;28;20378;-63
2021/03/15 10:28:03;;;;;;;;;;;;;;;5.70;79.81;99892.31;5015339;28;19917;-63
2021/03/15 10:30:35;;;;;;;22.40;2.97;;;;;;;5.54;81.15;99919.47;5030927;28;19927;-63
2021/03/15 10:33:02;;;;;;;20.10;3.70;;;;;;;5.13;82.36;99911.09;5014848;28;20030;-64
2021/03/15 10:35:33;;;;;;;18.40;2.20;;;;;;;4.40;81.61;99910.94;5014682;28;20030;-64
2021/03/15 10:38:14;;;;;;;10.73;2.00;;;;;;;4.05;83.45;99909.78;5031304;28;20033;-63
2021/03/15 10:40:51;;;;;;;11.40;3.25;;;;;;;3.95;84.70;99924.78;5032342;28;20037;-63
2021/03/15 10:43:22;;;;;;;18.08;2.78;;;;;;;4.03;85.51;99909.09;5014844;28;20087;-63
2021/03/15 10:45:49;;;;;;;10.85;3.38;;;;;;;4.25;86.12;99915.84;5014787;28;20124;-63
2021/03/15 10:48:15;;;;;;;9.35;2.33;;;;;;;4.44;86.50;99917.63;5013323;28;20128;-63
2021/03/15 10:50:54;;;;;;;22.20;3.20;;;;;;;4.47;85.50;99919.97;5014665;28;20037;-63
2021/03/15 10:53:30;;;;;;;13.57;3.70;;;;;;;4.60;86.13;99924.94;5031142;28;20033;-63
2021/03/15 10:56:01;;;;;;;19.30;3.72;;;;;;;4.54;85.99;99926.38;5014444;28;20129;-63
2021/03/15 10:58:38;;;;;;;17.33;3.53;;;;;;;4.68;85.69;99942.72;5014291;28;20124;-63
2021/03/15 11:01:12;;;;;;;11.27;3.30;;;;;;;4.69;85.88;99931.19;4999250;28;20463;-63
2021/03/15 11:03:44;;;;;;;22.02;3.17;;;;;;;4.66;84.55;99934.97;5031835;28;20124;-63
2021/03/15 11:06:21;;;;;;;12.85;3.13;;;;;;;4.71;84.54;99932.72;5031781;28;20075;-63
2021/03/15 11:09:00;;;;;;;7.47;1.33;;;;;;;4.77;82.97;99936.56;5014060;28;20613;-63
2021/03/15 11:11:29;;;;;;;7.80;2.20;;;;;;;4.76;82.86;99943.69;5031678;28;20459;-63
2021/03/15 11:14:07;;;;;;;19.75;3.03;;;;;;;4.76;82.90;99951.63;5014375;28;20522;-63
2021/03/15 11:16:35;;;;;;;10.73;2.33;;;;;;;4.71;83.59;99943.28;5013834;28;20091;-63
2021/03/15 11:19:04;;;;;;;9.88;3.50;;;;;;;4.73;83.61;99946.63;5013977;28;20033;-63
2021/03/15 11:21:46;;;;;;;10.73;2.20;;;;;;;4.69;83.46;99953.16;4997785;28;20025;-63
2021/03/15 11:24:28;;;;;;;10.32;2.35;;;;;;;4.62;83.27;99955.56;5031625;28;20041;-63
2021/03/15 11:27:04;;;;;;;6.68;1.92;;;;;;;4.58;83.51;99958.63;5014179;28;20393;-63
2021/03/15 11:29:42;;;;;;;7.30;1.88;;;;;;;4.61;84.45;99969.75;5030308;28;20083;-63
2021/03/15 11:32:26;;;;;;;14.35;2.30;;;;;;;4.62;84.49;99966.13;5031504;28;20095;-63
2021/03/15 11:35:03;;;;;;;11.75;2.58;;;;;;;4.81;83.85;99972.34;4999267;28;20037;-63
2021/03/15 11:37:47;;;;;;;12.60;2.97;;;;;;;4.95;84.32;99971.03;5013585;28;20466;-63
2021/03/15 11:40:25;;;;;;;6.65;1.75;;;;;;;4.90;83.38;99973.28;5029951;28;20421;-63
2021/03/15 11:42:55;;;;;;;8.60;2.08;;;;;;;4.73;82.78;99983.66;5030379;28;20034;-63
2021/03/15 11:45:22;;;;;;;9.82;2.05;;;;;;;4.68;82.95;99980.56;5013726;28;20176;-63
2021/03/15 11:47:50;;;;;;;9.10;2.35;;;;;;;4.67;83.95;99986.03;5029853;28;20043;-63
2021/03/15 11:50:24;;;;;;;6.93;1.75;;;;;;;4.63;84.44;99993.41;5028088;28;20710;-63
2021/03/15 11:52:57;;;;;;;8.18;1.80;;;;;;;4.68;84.10;100000.91;5030116;28;20059;-63